Time;durP1;ratioP1;P1;durP2;ratioP2;P2;SDS_P1;SDS_P2;PMS_P1;PMS_P2;Temp;Humidity;BMP_temperature;BMP_pressure;BME280_temperature;BME280_humidity;BME280_pressure;Samples;Min_cycle;Max_cycle;Signal;HPM_P1;HPM_P2
2021/06/01 00:00:54;;;;;;;2.26;1.23;;;;;;;9.99;73.88;99431.25;2016336;77;22939;-75
2021/06/01 00:03:57;;;;;;;5.66;1.17;;;;;;;9.95;73.83;99430.38;2016436;80;20199;-75
2021/06/01 00:07:00;;;;;;;1.40;1.27;;;;;;;9.92;74.13;99424.34;2017021;80;20365;-75
2021/06/01 00:10:07;;;;;;;2.26;1.45;;;;;;;9.92;74.32;99437.31;2017567;80;20176;-75
2021/06/01 00:13:09;;;;;;;3.33;1.36;;;;;;;9.89;74.21;99430.41;2017407;80;20168;-75
2021/06/01 00:16:13;;;;;;;1.79;1.35;;;;;;;9.89;74.15;99425.22;2018256;77;20710;-75
2021/06/01 00:19:17;;;;;;;6.36;1.56;;;;;;;9.86;74.55;99422.59;2016548;80;20168;-75
2021/06/01 00:22:20;;;;;;;2.99;1.40;;;;;;;9.84;74.71;99420.88;2017041;80;20226;-75
2021/06/01 00:25:23;;;;;;;2.74;1.40;;;;;;;9.80;74.65;99411.38;2017160;80;20541;-76
2021/06/01 00:28:25;;;;;;;2.33;1.45;;;;;;;9.79;75.01;99415.72;2016840;80;20159;-76
2021/06/01 00:31:28;;;;;;;5.79;1.50;;;;;;;9.77;74.99;99422.63;2016539;80;21762;-76
2021/06/01 00:34:31;;;;;;;5.53;1.52;;;;;;;9.75;75.47;99424.38;2016373;80;20274;-75
2021/06/01 00:37:33;;;;;;;2.01;1.49;;;;;;;9.75;75.64;99423.50;2016926;80;20248;-76
2021/06/01 00:40:36;;;;;;;3.35;1.59;;;;;;;9.76;75.58;99420.03;2017012;80;20220;-75
2021/06/01 00:43:39;;;;;;;2.03;1.48;;;;;;;9.71;75.16;99424.38;2016913;80;20184;-75
2021/06/01 00:46:41;;;;;;;3.20;1.98;;;;;;;9.71;75.29;99417.47;2015261;77;21165;-75
2021/06/01 00:49:44;;;;;;;3.75;1.85;;;;;;;9.69;75.32;99416.56;2016868;80;20187;-77
2021/06/01 00:52:47;;;;;;;5.72;1.60;;;;;;;9.66;75.44;99420.03;2016389;80;20156;-75
2021/06/01 00:55:51;;;;;;;2.19;1.65;;;;;;;9.61;75.28;99421.78;2016368;80;20675;-75
2021/06/01 00:58:53;;;;;;;2.28;1.90;;;;;;;9.59;75.55;99417.44;2017227;80;20674;-75
2021/06/01 01:01:56;;;;;;;3.85;1.74;;;;;;;9.60;75.54;99414.00;2015485;77;20209;-75
2021/06/01 01:05:00;;;;;;;4.29;2.17;;;;;;;9.58;75.24;99413.13;2017161;80;20215;-75
2021/06/01 01:11:53;;;;;;;6.68;2.34;;;;;;;9.55;75.31;99418.31;2017554;80;20244;-75
2021/06/01 01:15:00;;;;;;;5.51;2.71;;;;;;;9.47;75.75;99412.25;2018422;80;20321;-76
2021/06/01 01:18:11;;;;;;;5.07;2.65;;;;;;;9.38;76.04;99415.72;2017028;78;22802;-75
2021/06/01 01:21:27;;;;;;;4.21;1.83;;;;;;;9.29;76.11;99423.47;2020297;80;20337;-75
2021/06/01 01:24:34;;;;;;;2.71;1.88;;;;;;;9.16;76.97;99426.94;2017456;80;20709;-77
2021/06/01 01:28:09;;;;;;;2.78;2.03;;;;;;;9.11;77.25;99424.31;2017330;80;20731;-75
2021/06/01 01:31:25;;;;;;;4.19;2.53;;;;;;;9.13;77.76;99427.75;2016089;80;20305;-75
2021/06/01 01:34:29;;;;;;;3.13;1.50;;;;;;;9.15;77.81;99438.97;2017336;80;20196;-75
2021/06/01 01:37:33;;;;;;;4.50;2.20;;;;;;;9.16;77.99;99429.53;2017096;80;20193;-75
2021/06/01 01:40:38;;;;;;;1.89;1.79;;;;;;;9.12;77.70;99426.03;2017383;80;20196;-75
2021/06/01 01:43:42;;;;;;;3.95;2.26;;;;;;;9.15;77.82;99425.16;2017673;80;20201;-75
2021/06/01 01:49:49;;;;;;;2.24;1.94;;;;;;;9.07;77.62;99432.94;2017607;80;20231;-75
2021/06/01 01:52:51;;;;;;;2.29;1.83;;;;;;;9.06;77.50;99433.81;2017903;80;20201;-75
2021/06/01 01:55:54;;;;;;;2.26;1.59;;;;;;;9.06;77.47;99432.06;2017054;80;20269;-76
2021/06/01 01:58:57;;;;;;;3.22;1.41;;;;;;;9.05;77.23;99432.06;2017560;80;20221;-76
2021/06/01 02:02:01;;;;;;;2.17;1.29;;;;;;;9.02;77.21;99429.47;2017682;77;21302;-77
2021/06/01 02:05:08;;;;;;;2.40;1.48;;;;;;;9.01;77.33;99431.22;2019314;80;20312;-76
2021/06/01 02:08:11;;;;;;;1.66;1.14;;;;;;;8.95;77.36;99431.16;2018397;80;20187;-76
2021/06/01 02:11:14;;;;;;;3.10;1.41;;;;;;;8.89;77.71;99440.66;2019029;80;20211;-75
2021/06/01 02:14:18;;;;;;;2.13;1.30;;;;;;;8.74;77.72;99439.75;2018488;80;20897;-76
2021/06/01 02:17:21;;;;;;;1.24;1.14;;;;;;;8.73;78.12;99437.16;2018058;77;20869;-75
2021/06/01 02:20:23;;;;;;;1.67;1.09;;;;;;;8.69;78.25;99433.69;2018586;80;20203;-76
2021/06/01 02:23:48;;;;;;;1.67;1.56;;;;;;;8.65;78.31;99428.50;2018539;80;20179;-76
2021/06/01 02:27:19;;;;;;;1.71;1.45;;;;;;;8.62;78.38;99436.25;2019140;80;20168;-75
2021/06/01 02:30:28;;;;;;;1.48;1.10;;;;;;;8.63;78.31;99430.22;2017914;77;20540;-75
2021/06/01 02:33:35;;;;;;;1.30;1.20;;;;;;;8.54;78.47;99430.16;2018986;80;20270;-75
2021/06/01 02:36:39;;;;;;;4.53;1.24;;;;;;;8.51;78.76;99428.44;2018834;80;20674;-76
2021/06/01 02:39:42;;;;;;;3.66;1.69;;;;;;;8.44;78.73;99442.22;2018683;80;20184;-75
2021/06/01 02:42:45;;;;;;;2.42;1.44;;;;;;;8.41;79.11;99439.59;2018957;80;20846;-76
2021/06/01 02:45:53;;;;;;;4.29;1.60;;;;;;;8.43;79.22;99438.72;2017329;78;38620;-75
2021/06/01 02:48:57;;;;;;;3.29;1.51;;;;;;;8.43;79.29;99432.69;2018908;80;20172;-75
2021/06/01 02:52:00;;;;;;;1.70;1.41;;;;;;;8.41;79.42;99429.25;2018554;80;20201;-75
2021/06/01 02:55:04;;;;;;;3.15;1.59;;;;;;;8.44;79.36;99429.28;2018589;80;20247;-75
2021/06/01 02:58:09;;;;;;;1.86;1.50;;;;;;;8.44;79.34;99427.56;2018391;80;20264;-75
2021/06/01 03:01:16;;;;;;;2.30;1.88;;;;;;;8.43;79.18;99430.97;2017968;78;20741;-75
2021/06/01 03:04:19;;;;;;;3.51;1.60;;;;;;;8.44;79.23;99427.56;2018177;80;20298;-75
2021/06/01 03:07:22;;;;;;;1.85;1.24;;;;;;;8.42;79.25;99430.97;2017350;80;20257;-76
2021/06/01 03:10:25;;;;;;;1.33;1.20;;;;;;;8.28;79.26;99427.44;2017457;80;20268;-75
2021/06/01 03:13:28;;;;;;;3.04;1.51;;;;;;;8.25;79.58;99429.97;2016342;80;20192;-75
2021/06/01 03:16:30;;;;;;;1.50;1.35;;;;;;;8.19;79.93;99426.50;2016209;77;20310;-75
2021/06/01 03:19:33;;;;;;;1.35;1.25;;;;;;;8.15;80.05;99424.78;2017221;80;20598;-76
2021/06/01 03:22:35;;;;;;;1.39;1.29;;;;;;;8.14;80.13;99419.59;2017206;80;20187;-75
2021/06/01 03:25:38;;;;;;;3.13;1.48;;;;;;;8.15;80.05;99421.31;2017172;80;20196;-76
2021/06/01 03:28:41;;;;;;;1.58;1.36;;;;;;;8.13;80.04;99413.56;2016730;80;20614;-75
2021/06/01 03:31:43;;;;;;;1.77;1.21;;;;;;;8.10;79.76;99410.97;2015685;80;20233;-77
2021/06/01 03:34:46;;;;;;;1.91;1.40;;;;;;;8.05;79.86;99416.94;2017221;80;20397;-76
2021/06/01 03:37:50;;;;;;;1.51;1.30;;;;;;;8.07;80.12;99412.63;2017045;80;20623;-75
2021/06/01 03:40:53;;;;;;;2.53;1.14;;;;;;;8.05;80.24;99411.75;2017711;80;20197;-76
2021/06/01 03:43:56;;;;;;;2.91;1.15;;;;;;;7.94;80.28;99413.44;2016814;80;20256;-77
2021/06/01 03:46:58;;;;;;;3.31;1.92;;;;;;;7.88;80.72;99415.09;2015993;77;22044;-75
2021/06/01 03:50:02;;;;;;;1.74;1.64;;;;;;;7.93;81.05;99409.13;2017018;80;20240;-76
2021/06/01 03:53:05;;;;;;;2.51;1.21;;;;;;;7.93;81.15;99404.81;2016984;80;20646;-75
2021/06/01 03:56:07;;;;;;;2.08;1.31;;;;;;;7.91;80.91;99409.13;2016876;80;20163;-75
2021/06/01 03:59:10;;;;;;;2.00;1.20;;;;;;;7.98;80.79;99404.84;2016767;80;20695;-76
2021/06/01 04:02:12;;;;;;;1.89;1.50;;;;;;;8.01;80.65;99405.72;2016268;77;21802;-76
2021/06/01 04:05:15;;;;;;;2.67;1.40;;;;;;;8.03;80.49;99403.13;2016182;80;20226;-75
2021/06/01 04:08:17;;;;;;;4.72;1.77;;;;;;;8.15;82.03;99403.22;2017640;80;20207;-76
2021/06/01 04:11:20;;;;;;;1.44;1.20;;;;;;;8.32;81.76;99414.53;2016705;80;20184;-76
2021/06/01 04:14:23;;;;;;;3.39;1.36;;;;;;;8.41;81.55;99406.81;2016238;80;20270;-75
2021/06/01 04:17:25;;;;;;;3.31;1.20;;;;;;;8.50;81.02;99410.31;2016255;77;20511;-76
2021/06/01 04:20:28;;;;;;;2.76;1.94;;;;;;;8.62;80.44;99400.03;2017244;80;20167;-76
2021/06/01 04:23:30;;;;;;;3.05;1.61;;;;;;;8.74;80.45;99400.91;2017410;80;20211;-77
2021/06/01 04:26:33;;;;;;;1.44;1.27;;;;;;;8.89;80.14;99404.41;2017295;80;20496;-76
2021/06/01 04:29:36;;;;;;;3.09;1.29;;;;;;;9.13;78.61;99403.59;2016758;80;20217;-76
2021/06/01 04:32:38;;;;;;;2.15;1.20;;;;;;;9.36;77.75;99391.53;2015819;78;21878;-76
2021/06/01 04:35:41;;;;;;;2.10;1.60;;;;;;;9.62;76.84;99404.47;2017041;80;20197;-76
2021/06/01 04:38:44;;;;;;;2.58;1.60;;;;;;;9.88;75.21;99400.16;2018113;80;20682;-76
2021/06/01 04:41:46;;;;;;;2.42;1.40;;;;;;;10.16;73.49;99406.13;2018367;80;20176;-76
2021/06/01 04:44:49;;;;;;;1.16;1.05;;;;;;;10.42;72.54;99402.66;2017873;80;20690;-75
2021/06/01 04:47:52;;;;;;;1.20;1.10;;;;;;;10.69;71.06;99394.72;2017923;78;20990;-75
2021/06/01 04:50:55;;;;;;;2.19;1.08;;;;;;;10.99;69.63;99398.91;2018333;80;20216;-76
2021/06/01 04:53:58;;;;;;;1.16;1.06;;;;;;;11.30;67.75;99406.47;2018315;80;20213;-75
2021/06/01 04:57:01;;;;;;;1.19;1.09;;;;;;;11.60;67.43;99397.59;2017485;80;20179;-75
2021/06/01 05:00:06;;;;;;;3.00;1.00;;;;;;;11.94;65.85;99399.03;2017430;80;20694;-75
2021/06/01 05:03:09;;;;;;;2.05;0.89;;;;;;;12.43;63.45;99395.06;2018158;77;20249;-74
2021/06/01 05:06:11;;;;;;;1.56;1.00;;;;;;;12.98;62.22;99392.59;2017910;80;20696;-76
2021/06/01 05:09:14;;;;;;;1.95;0.98;;;;;;;13.48;60.47;99388.41;2018366;80;20233;-76
2021/06/01 05:12:16;;;;;;;1.60;1.00;;;;;;;13.94;58.11;99378.00;2017814;80;20167;-76
2021/06/01 05:15:19;;;;;;;1.11;0.82;;;;;;;14.34;56.46;99387.69;2017426;77;22383;-75
2021/06/01 05:18:22;;;;;;;1.27;0.91;;;;;;;14.70;55.54;99380.88;2018241;80;20172;-76
2021/06/01 05:21:37;;;;;;;1.24;0.81;;;;;;;14.99;53.95;99382.88;2018846;80;20714;-75
2021/06/01 05:24:40;;;;;;;1.13;0.84;;;;;;;15.16;53.17;99375.50;2018547;80;20274;-76
2021/06/01 05:27:42;;;;;;;1.54;0.98;;;;;;;15.34;52.69;99377.69;2017979;80;20204;-75
2021/06/01 05:33:59;;;;;;;2.06;0.90;;;;;;;16.26;50.07;99376.22;2019076;80;20278;-75
2021/06/01 05:37:02;;;;;;;1.75;0.80;;;;;;;16.87;48.50;99378.84;2018101;80;20204;-75
2021/06/01 05:40:05;;;;;;;2.67;0.71;;;;;;;17.39;46.78;99374.59;2018828;80;20260;-75
2021/06/01 05:43:08;;;;;;;1.63;0.80;;;;;;;17.81;45.74;99381.09;2018694;80;20227;-75
2021/06/01 05:46:11;;;;;;;1.81;0.81;;;;;;;18.10;44.94;99384.47;2017386;77;24068;-76
2021/06/01 05:49:13;;;;;;;1.17;0.74;;;;;;;18.28;44.08;99388.22;2019585;80;20188;-75
2021/06/01 05:52:16;;;;;;;2.30;0.95;;;;;;;18.41;43.64;99387.72;2017809;80;20294;-76
2021/06/01 05:55:18;;;;;;;0.90;0.89;;;;;;;18.56;42.79;99388.94;2019317;80;20200;-75
2021/06/01 05:58:22;;;;;;;2.91;0.84;;;;;;;18.77;41.92;99391.72;2020006;80;20264;-75
2021/06/01 06:01:25;;;;;;;1.26;0.85;;;;;;;19.02;42.08;99382.81;2017957;77;20674;-75
2021/06/01 06:04:28;;;;;;;1.56;0.90;;;;;;;19.35;40.99;99392.06;2019128;80;20819;-76
2021/06/01 06:07:30;;;;;;;2.84;0.80;;;;;;;19.69;40.19;99384.53;2019336;80;20196;-76
2021/06/01 06:10:33;;;;;;;4.70;0.70;;;;;;;20.01;39.69;99388.47;2020885;80;20193;-76
2021/06/01 06:13:36;;;;;;;2.44;0.80;;;;;;;20.38;39.09;99384.22;2019939;80;20286;-77
2021/06/01 06:16:51;;;;;;;3.53;0.80;;;;;;;20.55;38.37;99386.13;2018993;77;20201;-76
2021/06/01 06:19:54;;;;;;;3.26;0.90;;;;;;;20.73;37.85;99380.03;2020164;80;20188;-76
2021/06/01 06:22:58;;;;;;;4.50;0.80;;;;;;;20.98;36.93;99385.00;2019814;80;20164;-76
2021/06/01 06:26:02;;;;;;;2.86;0.81;;;;;;;21.21;36.92;99374.22;2019349;80;20198;-76
2021/06/01 06:29:05;;;;;;;3.61;0.74;;;;;;;21.32;36.52;99374.56;2019832;80;20191;-76
2021/06/01 06:32:07;;;;;;;0.71;0.71;;;;;;;21.48;35.78;99372.03;2018583;77;21516;-75
2021/06/01 06:35:10;;;;;;;1.04;0.80;;;;;;;21.52;35.47;99370.94;2019177;80;20213;-77
2021/06/01 06:38:13;;;;;;;1.48;0.85;;;;;;;21.45;35.37;99361.63;2019311;80;20176;-74
2021/06/01 06:41:16;;;;;;;0.77;0.74;;;;;;;21.38;35.76;99362.88;2019517;80;20172;-74
2021/06/01 06:44:19;;;;;;;1.06;0.70;;;;;;;21.50;35.69;99367.53;2019573;80;20168;-74
2021/06/01 06:47:39;;;;;;;6.03;1.04;;;;;;;21.57;34.90;99371.59;2018520;77;21137;-75
2021/06/01 06:50:42;;;;;;;2.67;0.80;;;;;;;21.73;34.80;99357.63;2019241;80;20653;-75
2021/06/01 06:53:52;;;;;;;1.49;0.64;;;;;;;21.83;34.95;99365.00;2019545;80;20733;-76
2021/06/01 06:56:55;;;;;;;1.96;0.76;;;;;;;21.85;34.66;99362.28;2018523;80;20201;-73
2021/06/01 06:59:58;;;;;;;3.34;0.70;;;;;;;21.97;34.71;99354.56;2018870;80;20175;-73
2021/06/01 07:03:00;;;;;;;2.36;0.70;;;;;;;22.24;34.12;99352.31;2012761;77;22286;-73
2021/06/01 07:06:04;;;;;;;1.69;0.70;;;;;;;22.52;33.50;99342.91;2013091;80;20219;-73
2021/06/01 07:09:07;;;;;;;2.16;0.79;;;;;;;22.75;33.21;99344.28;2013955;80;20168;-73
2021/06/01 07:12:10;;;;;;;5.13;0.70;;;;;;;22.91;33.17;99346.03;2014132;80;20194;-73
2021/06/01 07:15:21;;;;;;;2.59;0.70;;;;;;;23.05;33.04;99339.13;2013800;80;20334;-73
2021/06/01 07:18:24;;;;;;;1.24;0.75;;;;;;;23.07;32.62;99339.88;2016833;80;20204;-74
2021/06/01 07:21:27;;;;;;;3.60;0.80;;;;;;;23.04;32.52;99338.28;2018574;80;20211;-74
2021/06/01 07:24:29;;;;;;;2.78;0.60;;;;;;;22.91;32.85;99335.44;2018680;80;20577;-74
2021/06/01 07:27:32;;;;;;;2.67;0.65;;;;;;;22.88;32.94;99332.13;2019067;80;20229;-73
2021/06/01 07:30:35;;;;;;;0.60;0.50;;;;;;;22.69;32.57;99334.91;2018274;80;20987;-73
2021/06/01 07:33:37;;;;;;;1.46;0.60;;;;;;;22.86;32.68;99332.22;2018554;80;20160;-73
2021/06/01 07:36:40;;;;;;;0.99;0.60;;;;;;;23.05;32.16;99329.38;2018980;80;20200;-73
2021/06/01 07:39:43;;;;;;;0.54;0.50;;;;;;;23.32;31.87;99339.34;2018507;80;20221;-74
2021/06/01 07:42:46;;;;;;;1.08;0.61;;;;;;;23.45;31.62;99341.19;2019511;80;20216;-74
2021/06/01 07:45:49;;;;;;;0.69;0.60;;;;;;;23.45;32.10;99337.69;2017638;77;20549;-74
2021/06/01 07:48:52;;;;;;;0.86;0.50;;;;;;;23.46;30.77;99347.34;2019147;80;20216;-73
2021/06/01 07:51:54;;;;;;;2.17;0.54;;;;;;;23.43;30.87;99334.28;2017781;80;20242;-73
2021/06/01 07:54:57;;;;;;;3.90;0.50;;;;;;;23.45;31.64;99340.34;2018180;80;20194;-73
2021/06/01 07:58:00;;;;;;;3.97;0.50;;;;;;;23.54;31.33;99329.22;2018975;80;20199;-74
2021/06/01 08:01:02;;;;;;;4.05;0.60;;;;;;;23.60;30.16;99323.59;2016929;77;20684;-76
2021/06/01 08:04:05;;;;;;;0.90;0.50;;;;;;;23.58;30.82;99322.81;2019198;80;20249;-77
2021/06/01 08:07:08;;;;;;;3.22;0.80;;;;;;;23.78;31.02;99319.00;2018259;80;20275;-79
2021/06/01 08:10:11;;;;;;;0.98;0.50;;;;;;;23.84;30.77;99318.63;2026973;80;20172;-79
2021/06/01 08:13:15;;;;;;;0.59;0.50;;;;;;;24.04;29.32;99330.66;2026121;80;20228;-83
2021/06/01 08:16:18;;;;;;;2.24;0.50;;;;;;;24.01;29.45;99317.59;2025935;77;26119;-79
2021/06/01 08:19:27;;;;;;;2.30;0.60;;;;;;;24.07;29.37;99311.94;2026882;80;20197;-80
2021/06/01 08:22:31;;;;;;;2.78;0.40;;;;;;;24.18;29.34;99322.72;2024138;80;20193;-79
2021/06/01 08:25:34;;;;;;;0.47;0.40;;;;;;;24.27;28.87;99316.03;2028213;80;20207;-82
2021/06/01 08:28:37;;;;;;;2.11;0.40;;;;;;;24.36;28.29;99316.31;2031029;80;20187;-83
2021/06/01 08:31:41;;;;;;;2.51;0.50;;;;;;;24.44;27.62;99313.22;2029207;77;20289;-84
2021/06/01 08:34:44;;;;;;;1.23;0.32;;;;;;;24.51;27.36;99317.16;2028815;80;20265;-81
2021/06/01 08:37:47;;;;;;;1.09;0.35;;;;;;;24.56;26.96;99314.22;2030845;80;20163;-79
2021/06/01 08:40:51;;;;;;;3.11;0.50;;;;;;;24.63;26.88;99318.22;2030285;80;20175;-80
2021/06/01 08:44:00;;;;;;;0.60;0.60;;;;;;;24.66;26.46;99305.59;2024604;80;20184;-77
2021/06/01 08:47:03;;;;;;;;;;;;;;;24.68;27.33;99305.50;2019726;78;20204;-74
2021/06/01 08:50:08;;;;;;;0.98;0.40;;;;;;;24.75;26.86;99295.31;2018752;80;20064;-71
2021/06/01 08:53:10;;;;;;;1.42;0.47;;;;;;;24.88;26.56;99293.59;2016950;80;20205;-73
2021/06/01 08:56:14;;;;;;;0.50;0.40;;;;;;;25.05;26.81;99295.19;2016963;80;20225;-73
2021/06/01 08:59:16;;;;;;;2.09;0.50;;;;;;;25.03;26.09;99297.09;2016919;80;20253;-73
2021/06/01 09:02:23;;;;;;;0.38;0.30;;;;;;;25.03;26.48;99291.78;2016136;77;20201;-73
2021/06/01 09:05:26;;;;;;;0.47;0.40;;;;;;;24.99;26.03;99294.63;2016761;80;20213;-76
2021/06/01 09:12:22;;;;;;;1.26;0.40;;;;;;;24.99;26.34;99278.69;2016442;80;20201;-74
2021/06/01 09:21:49;;;;;;;2.91;0.50;;;;;;;25.77;26.74;99276.13;2017012;80;20180;-74
2021/06/01 09:25:26;;;;;;;0.98;0.40;;;;;;;25.86;25.68;99272.00;2016636;80;20852;-74
2021/06/01 09:28:29;;;;;;;3.42;0.50;;;;;;;25.94;25.38;99279.44;2017566;80;20218;-73
2021/06/01 09:31:32;;;;;;;2.46;0.40;;;;;;;25.95;25.08;99276.69;2016020;77;21705;-74
2021/06/01 09:34:40;;;;;;;3.25;0.54;;;;;;;25.97;25.03;99273.91;2017208;80;20195;-75
2021/06/01 09:37:44;;;;;;;0.40;0.40;;;;;;;25.96;24.90;99272.19;2017443;80;20256;-72
2021/06/01 09:40:49;;;;;;;1.01;0.40;;;;;;;25.95;24.97;99273.16;2017894;80;20942;-74
2021/06/01 09:43:57;;;;;;;0.91;0.32;;;;;;;26.00;24.77;99268.38;2017775;80;20215;-75
2021/06/01 09:47:00;;;;;;;0.63;0.40;;;;;;;26.17;25.55;99274.22;2016172;77;23317;-73
2021/06/01 09:50:15;;;;;;;2.79;0.40;;;;;;;26.44;24.88;99268.78;2014876;80;22864;-78
2021/06/01 09:56:38;;;;;;;2.01;0.40;;;;;;;26.40;24.91;99254.00;2011704;69;20262;-76
2021/06/01 09:59:41;;;;;;;2.35;0.40;;;;;;;26.60;24.66;99249.88;2004669;80;20254;-77
2021/06/01 10:03:13;;;;;;;0.51;0.40;;;;;;;26.82;24.80;99250.97;2009041;78;22656;-81
2021/06/01 10:06:17;;;;;;;0.55;0.40;;;;;;;26.97;23.41;99247.19;2012304;80;20180;-77
2021/06/01 10:09:20;;;;;;;1.40;0.30;;;;;;;26.98;23.29;99254.22;2012503;80;20218;-78
2021/06/01 10:12:23;;;;;;;4.43;0.50;;;;;;;27.00;22.58;99247.84;2012213;80;20224;-78
2021/06/01 10:15:28;;;;;;;1.74;0.40;;;;;;;26.92;22.62;99247.50;2009923;78;21140;-75
2021/06/01 10:18:34;;;;;;;1.41;0.30;;;;;;;26.69;21.13;99238.56;2007722;80;20233;-82
2021/06/01 10:21:37;;;;;;;0.45;0.30;;;;;;;26.72;21.35;99230.31;2008167;80;20221;-81
2021/06/01 10:24:40;;;;;;;1.58;0.36;;;;;;;26.95;22.45;99233.13;2007372;80;20201;-78
2021/06/01 10:27:44;;;;;;;0.30;0.30;;;;;;;27.16;22.50;99236.88;2006856;80;20200;-85
2021/06/01 10:30:47;;;;;;;3.66;0.84;;;;;;;27.20;21.41;99235.69;2007875;78;21619;-80
2021/06/01 10:33:59;;;;;;;0.51;0.30;;;;;;;27.23;20.38;99230.13;2008883;80;20194;-80
2021/06/01 10:50:22;;;;;;;0.30;0.30;;;;;;;27.60;19.84;99225.47;2007288;80;20199;-77
2021/06/01 10:53:38;;;;;;;0.30;0.30;;;;;;;27.65;20.49;99218.03;2007283;80;20188;-77
2021/06/01 10:56:53;;;;;;;0.68;0.30;;;;;;;27.74;19.69;99212.94;2006345;80;20207;-77
2021/06/01 11:03:07;;;;;;;4.05;0.30;;;;;;;27.71;19.81;99202.50;2001115;78;20632;-76
2021/06/01 11:06:12;;;;;;;2.17;0.30;;;;;;;27.89;19.25;99217.06;2001631;81;20259;-78
2021/06/01 11:09:45;;;;;;;1.04;0.40;;;;;;;27.86;20.18;99218.16;2001940;81;20500;-75
2021/06/01 11:12:47;;;;;;;3.00;0.40;;;;;;;27.94;19.24;99206.88;2001590;81;20199;-75
2021/06/01 11:15:59;;;;;;;0.74;0.30;;;;;;;27.94;20.28;99205.06;2003212;77;20299;-76
2021/06/01 11:19:08;;;;;;;0.49;0.45;;;;;;;27.98;20.12;99200.31;2012873;80;20226;-77
2021/06/01 11:22:21;;;;;;;;;;;;;;;28.13;20.53;99204.44;2012452;80;20261;-80
2021/06/01 11:35:38;;;;;;;0.30;0.30;;;;;;;28.37;20.11;99187.44;2006817;80;20293;-79
2021/06/01 11:45:15;;;;;;;0.45;0.30;;;;;;;28.42;19.49;99169.25;2006875;80;20192;-82
2021/06/01 11:51:28;;;;;;;1.94;0.40;;;;;;;28.51;20.52;99176.50;2011774;80;20258;-80
2021/06/01 11:54:31;;;;;;;1.52;0.30;;;;;;;28.54;20.40;99163.72;2011140;80;20207;-80
2021/06/01 12:02:02;;;;;;;0.30;0.30;;;;;;;28.49;18.54;99175.78;2012204;80;20157;-79
2021/06/01 12:05:00;;;;;;;0.40;0.30;;;;;;;28.28;19.30;99162.34;2006293;80;20221;-77
2021/06/01 12:11:42;;;;;;;1.00;0.41;;;;;;;28.61;19.22;99158.75;2006139;80;20270;-79
2021/06/01 12:18:37;;;;;;;0.36;0.35;;;;;;;28.70;19.42;99143.75;2006241;78;20929;-79
2021/06/01 12:21:50;;;;;;;0.43;0.40;;;;;;;28.70;20.41;99147.28;2006711;80;20218;-78
2021/06/01 12:25:09;;;;;;;0.71;0.50;;;;;;;28.75;18.65;99154.94;2006618;80;21223;-79
2021/06/01 12:30:53;;;;;;;0.30;0.30;;;;;;;28.67;19.95;99150.22;2006041;80;20716;-80
2021/06/01 12:32:06;;;;;;;0.60;0.35;;;;;;;28.72;19.35;99142.66;2004932;78;23514;-76
2021/06/01 12:41:56;;;;;;;0.44;0.30;;;;;;;28.60;20.61;99138.34;2011094;80;20560;-76
2021/06/01 12:45:00;;;;;;;0.44;0.40;;;;;;;28.34;19.78;99129.78;2010885;80;20347;-74
2021/06/01 13:21:45;;;;;;;2.30;0.43;;;;;;;28.86;20.33;99102.28;1988125;81;20187;-83
2021/06/01 13:32:27;;;;;;;0.94;0.50;;;;;;;29.12;20.98;99101.91;2002706;78;20420;-75
2021/06/01 13:39:32;;;;;;;3.85;0.44;;;;;;;28.99;20.53;99086.06;2001712;81;20190;-80
2021/06/01 13:46:26;;;;;;;1.96;0.46;;;;;;;28.81;20.24;99083.09;2008258;78;21261;-79
2021/06/01 13:49:40;;;;;;;0.80;0.40;;;;;;;28.88;20.38;99086.97;2011913;80;20281;-77
2021/06/01 13:53:01;;;;;;;2.60;0.40;;;;;;;28.83;20.22;99090.97;2011867;80;20240;-80
2021/06/01 13:56:07;;;;;;;0.40;0.40;;;;;;;28.90;19.49;99089.50;2011871;80;20190;-79
2021/06/01 13:59:38;;;;;;;1.29;0.38;;;;;;;28.87;20.63;99084.44;2011637;80;20172;-80
2021/06/01 14:36:10;;;;;;;2.53;0.40;;;;;;;29.25;19.72;99050.88;2000961;80;20173;-79
2021/06/01 14:39:29;;;;;;;2.03;0.50;;;;;;;29.19;19.25;99050.44;2007804;80;20839;-83
2021/06/01 15:30:12;;;;;;;0.65;0.40;;;;;;;29.46;19.55;98998.22;2011596;80;20208;-78
2021/06/01 15:53:47;;;;;;;0.86;0.50;;;;;;;29.51;19.04;98987.09;2011842;80;20169;-79
2021/06/01 16:11:21;;;;;;;0.40;0.34;;;;;;;29.49;19.34;98987.25;2012100;80;20417;-81
2021/06/01 16:14:33;;;;;;;0.69;0.50;;;;;;;29.51;18.80;98965.69;2011009;80;20253;-79
2021/06/01 16:31:24;;;;;;;0.86;0.40;;;;;;;29.08;18.75;98950.72;2008426;78;20189;-77
2021/06/01 17:03:06;;;;;;;1.94;0.50;;;;;;;27.63;19.84;98946.97;2007311;80;20173;-78
2021/06/01 17:04:54;;;;;;;0.66;0.50;;;;;;;25.45;21.61;98943.28;2013000;80;20834;-79
2021/06/01 17:11:17;;;;;;;0.94;0.40;;;;;;;25.13;22.01;98950.06;2012396;80;20210;-79
2021/06/01 17:14:25;;;;;;;2.36;0.50;;;;;;;24.98;21.11;98942.22;2013649;80;20218;-79
2021/06/01 17:17:33;;;;;;;3.11;0.64;;;;;;;24.78;22.33;98936.63;2008451;78;20480;-79
2021/06/01 17:36:51;;;;;;;2.40;0.52;;;;;;;23.84;25.06;98936.75;2017183;80;20165;-79
2021/06/01 17:39:54;;;;;;;5.28;0.50;;;;;;;23.69;25.86;98938.59;2013871;80;20206;-77
2021/06/01 17:43:03;;;;;;;0.93;0.50;;;;;;;23.63;25.72;98941.66;2008033;80;20234;-77
2021/06/01 17:46:06;;;;;;;0.35;0.35;;;;;;;23.41;27.11;98938.66;2007399;78;22850;-76
2021/06/01 17:49:09;;;;;;;0.74;0.40;;;;;;;23.27;27.87;98944.00;2009368;80;20216;-77
2021/06/01 17:52:12;;;;;;;1.27;0.50;;;;;;;23.18;28.62;98937.50;2008076;80;20226;-77
2021/06/01 17:55:17;;;;;;;1.54;0.68;;;;;;;23.03;28.91;98939.28;2008610;80;20189;-77
2021/06/01 17:58:24;;;;;;;3.17;0.68;;;;;;;22.88;29.49;98946.41;2009157;80;20189;-74
2021/06/01 18:01:30;;;;;;;2.01;0.60;;;;;;;22.81;28.86;98944.19;2008335;78;23681;-72
2021/06/01 18:04:33;;;;;;;1.08;0.63;;;;;;;22.75;29.30;98942.75;2011847;80;20214;-73
2021/06/01 18:07:46;;;;;;;2.72;0.56;;;;;;;22.63;30.20;98940.03;2011505;80;20212;-73
2021/06/01 19:24:55;;;;;;;5.18;0.61;;;;;;;18.02;44.79;98959.09;2007037;80;20180;-76
2021/06/01 19:51:33;;;;;;;3.31;0.89;;;;;;;16.86;52.57;98976.72;1997913;81;20913;-75
2021/06/01 19:54:37;;;;;;;5.25;1.10;;;;;;;16.71;52.59;98981.69;2001276;81;20201;-76
2021/06/01 19:57:40;;;;;;;1.02;0.84;;;;;;;16.54;52.55;98983.13;2002126;81;20195;-76
2021/06/01 20:00:43;;;;;;;2.46;1.09;;;;;;;16.40;51.65;98987.97;2003679;78;22275;-75
2021/06/01 20:03:45;;;;;;;3.29;1.00;;;;;;;16.24;51.91;98992.88;2012075;80;20188;-75
2021/06/01 20:06:48;;;;;;;2.85;1.10;;;;;;;16.17;52.52;98990.53;2011164;80;20172;-76
2021/06/01 20:09:51;;;;;;;3.13;1.33;;;;;;;16.08;53.63;98991.69;2011222;80;20201;-76
2021/06/01 20:12:55;;;;;;;2.20;1.30;;;;;;;15.99;54.39;99005.94;2011098;80;20234;-75
2021/06/01 20:15:57;;;;;;;2.55;1.11;;;;;;;15.84;54.48;98998.56;2009260;80;21241;-75
2021/06/01 20:19:02;;;;;;;3.58;1.84;;;;;;;15.73;53.98;99010.28;2006405;80;20194;-75
2021/06/01 20:22:06;;;;;;;4.29;1.35;;;;;;;15.64;54.56;99008.81;2006465;80;20196;-75
2021/06/01 20:25:09;;;;;;;1.59;1.49;;;;;;;15.56;55.79;99011.63;2005855;80;20198;-76
2021/06/01 20:28:20;;;;;;;2.76;1.50;;;;;;;15.42;55.94;99019.03;2005549;80;20165;-76
2021/06/01 20:31:33;;;;;;;1.77;1.36;;;;;;;15.32;55.96;99017.59;2005551;78;21639;-76
2021/06/01 20:34:36;;;;;;;2.30;1.25;;;;;;;15.24;57.25;99015.19;2006476;80;20707;-76
2021/06/01 20:37:41;;;;;;;2.61;1.27;;;;;;;15.13;57.18;99017.28;2006878;80;20293;-76
2021/06/01 20:40:45;;;;;;;2.49;1.36;;;;;;;15.02;57.58;99019.34;2006573;80;20748;-76
2021/06/01 20:43:47;;;;;;;4.44;1.23;;;;;;;14.95;58.01;99017.81;2006436;80;20176;-76
2021/06/01 20:46:50;;;;;;;3.80;1.16;;;;;;;14.86;58.68;99018.91;2008589;78;23705;-76
2021/06/01 20:49:53;;;;;;;2.14;1.13;;;;;;;14.77;59.19;99017.41;2011824;80;20263;-76
2021/06/01 20:52:57;;;;;;;4.10;1.36;;;;;;;14.67;59.59;99028.16;2012002;80;20188;-76
2021/06/01 20:55:59;;;;;;;2.64;1.11;;;;;;;14.57;59.21;99030.16;2011235;80;20161;-76
2021/06/01 20:59:03;;;;;;;1.66;1.16;;;;;;;14.50;58.86;99026.84;2011575;80;21001;-76
2021/06/01 21:02:10;;;;;;;4.56;1.60;;;;;;;14.42;58.30;99033.16;2007461;78;26122;-76
2021/06/01 21:05:14;;;;;;;3.11;1.36;;;;;;;14.28;58.70;99032.63;2006127;80;20199;-76
2021/06/01 21:08:17;;;;;;;1.77;1.29;;;;;;;14.19;59.88;99033.72;2006060;80;20209;-77
2021/06/01 21:11:23;;;;;;;2.79;1.41;;;;;;;14.10;60.94;99033.94;2006033;80;20165;-78
2021/06/01 21:14:29;;;;;;;2.79;1.33;;;;;;;14.04;62.10;99029.75;2005671;80;20173;-78
2021/06/01 21:17:32;;;;;;;2.89;1.00;;;;;;;13.95;62.23;99036.91;2010535;80;26571;-77